Portada
METAR-TAF:

METAR-TAF

Aeroports :

Visakhapatnam, Índia

latitud: 17-43-16N, longitud: 83-13-28E, altitud: 6 m

Observació

L'informe es va fer fa 1 hora i 7 minuts, a les 21:30 UTC
Vent 2 kt amb direcció variable
Temperatura 24°C
Humitat 89%
Pressió 1011 hPa
Visibilitat: 4000 m
boirina

METAR: VOVZ 012130Z VRB02KT 4000 BR NSC 24/22 Q1011 NOSIG

Hora: 04:07 (22:37 UTC)

Pronòstic

L'informe es va fer fa 2 hores i 37 minuts, a les 20:00 UTC
Pronòstic vàlid del 01 a les 21 UTC al 02 a les 06 UTC
Vent 2 kt amb direcció variable
Visibilitat: 4000 m
Escasses núvols a una alçada de 1800 ft
boirina
Temporalment
l' 02 a les 00 UTC al 02 a les 03 UTC
Visibilitat: 1000 m
boirina
Evolucionant progressivament
l' 02 a les 03 UTC al 02 a les 05 UTC
Vent 10 kt del Sud-Oest
Visibilitat: 3000 m
Escasses núvols a una alçada de 1800 ft
Núvols disperses a una alçada de 9000 ft
calitja

TAF: VOVZ 012000Z 0121/0206 VRB02KT 4000 BR FEW018 TEMPO 0200/0203 1000 BR BECMG 0203/0205 22010KT 3000 HZ FEW018 SCT090

Observacions i pronòstics meteorològics de més de 4000 aeroports (METAR i TAF).

Les estacions disponibles són els punts grocs i vermells al mapa.

Posi el ratolí al punt desitjat per veure el nom de l'estació.

Feu clic per veure les observacions i els pronòstics meteorològics.

Per canviar el mapa: feu clic els botons verds amb una creu de color negre per apropar; al botó verd amb un guió per allunyar la imatge; o en les fletxes verdes per a mapes adjacents.


METAR-TAF: